sensor_id;sensor_type;location;lat;lon;timestamp;P1;durP1;ratioP1;P2;durP2;ratioP2
20697;SDS011;10508;50.956;4.640;2023-04-28T00:02:03;17.02;;;7.45;;
20697;SDS011;10508;50.956;4.640;2023-04-28T00:04:29;16.83;;;7.53;;
20697;SDS011;10508;50.956;4.640;2023-04-28T00:07:01;18.85;;;8.20;;
20697;SDS011;10508;50.956;4.640;2023-04-28T00:09:28;19.10;;;9.02;;
20697;SDS011;10508;50.956;4.640;2023-04-28T00:11:54;23.17;;;9.30;;
20697;SDS011;10508;50.956;4.640;2023-04-28T00:14:20;24.38;;;10.02;;
20697;SDS011;10508;50.956;4.640;2023-04-28T00:16:46;24.15;;;9.38;;
20697;SDS011;10508;50.956;4.640;2023-04-28T00:19:12;21.13;;;9.57;;
20697;SDS011;10508;50.956;4.640;2023-04-28T00:21:38;21.30;;;9.35;;
20697;SDS011;10508;50.956;4.640;2023-04-28T00:24:23;21.23;;;9.52;;
20697;SDS011;10508;50.956;4.640;2023-04-28T00:26:55;21.63;;;10.38;;
20697;SDS011;10508;50.956;4.640;2023-04-28T00:29:21;19.52;;;9.98;;
20697;SDS011;10508;50.956;4.640;2023-04-28T00:31:47;20.65;;;9.73;;
20697;SDS011;10508;50.956;4.640;2023-04-28T00:34:13;22.30;;;10.32;;
20697;SDS011;10508;50.956;4.640;2023-04-28T00:36:39;22.08;;;10.18;;
20697;SDS011;10508;50.956;4.640;2023-04-28T00:39:05;21.02;;;10.13;;
20697;SDS011;10508;50.956;4.640;2023-04-28T00:41:33;18.77;;;9.63;;
20697;SDS011;10508;50.956;4.640;2023-04-28T00:43:59;26.92;;;10.52;;
20697;SDS011;10508;50.956;4.640;2023-04-28T00:46:28;20.50;;;9.35;;
20697;SDS011;10508;50.956;4.640;2023-04-28T00:48:56;20.58;;;9.50;;
20697;SDS011;10508;50.956;4.640;2023-04-28T00:51:22;23.55;;;10.40;;
20697;SDS011;10508;50.956;4.640;2023-04-28T00:53:49;19.80;;;9.52;;
20697;SDS011;10508;50.956;4.640;2023-04-28T00:56:15;18.13;;;9.05;;
20697;SDS011;10508;50.956;4.640;2023-04-28T00:58:41;21.90;;;10.25;;
20697;SDS011;10508;50.956;4.640;2023-04-28T01:01:08;21.48;;;10.13;;
20697;SDS011;10508;50.956;4.640;2023-04-28T01:03:35;18.40;;;9.38;;
20697;SDS011;10508;50.956;4.640;2023-04-28T01:06:05;21.98;;;9.70;;
20697;SDS011;10508;50.956;4.640;2023-04-28T01:08:31;21.35;;;10.00;;
20697;SDS011;10508;50.956;4.640;2023-04-28T01:10:57;21.35;;;10.02;;
20697;SDS011;10508;50.956;4.640;2023-04-28T01:13:24;22.17;;;9.73;;
20697;SDS011;10508;50.956;4.640;2023-04-28T01:15:50;18.60;;;9.73;;
20697;SDS011;10508;50.956;4.640;2023-04-28T01:18:16;21.75;;;9.77;;
20697;SDS011;10508;50.956;4.640;2023-04-28T01:20:42;28.30;;;9.68;;
20697;SDS011;10508;50.956;4.640;2023-04-28T01:23:12;20.50;;;9.57;;
20697;SDS011;10508;50.956;4.640;2023-04-28T01:25:39;18.45;;;8.75;;
20697;SDS011;10508;50.956;4.640;2023-04-28T01:28:05;17.23;;;9.20;;
20697;SDS011;10508;50.956;4.640;2023-04-28T01:30:31;21.38;;;9.45;;
20697;SDS011;10508;50.956;4.640;2023-04-28T01:32:57;23.20;;;9.85;;
20697;SDS011;10508;50.956;4.640;2023-04-28T01:35:23;21.35;;;9.70;;
20697;SDS011;10508;50.956;4.640;2023-04-28T01:37:49;25.00;;;11.05;;
20697;SDS011;10508;50.956;4.640;2023-04-28T01:40:15;21.23;;;9.07;;
20697;SDS011;10508;50.956;4.640;2023-04-28T01:42:41;16.63;;;8.65;;
20697;SDS011;10508;50.956;4.640;2023-04-28T01:45:08;20.58;;;10.02;;
20697;SDS011;10508;50.956;4.640;2023-04-28T01:47:34;21.52;;;9.98;;
20697;SDS011;10508;50.956;4.640;2023-04-28T01:50:00;19.23;;;9.35;;
20697;SDS011;10508;50.956;4.640;2023-04-28T01:52:26;25.48;;;9.50;;
20697;SDS011;10508;50.956;4.640;2023-04-28T01:54:53;20.00;;;9.77;;
20697;SDS011;10508;50.956;4.640;2023-04-28T01:57:19;21.85;;;9.43;;
20697;SDS011;10508;50.956;4.640;2023-04-28T01:59:45;21.98;;;9.00;;
20697;SDS011;10508;50.956;4.640;2023-04-28T02:02:11;22.00;;;9.15;;
20697;SDS011;10508;50.956;4.640;2023-04-28T02:04:38;21.55;;;9.20;;
20697;SDS011;10508;50.956;4.640;2023-04-28T02:07:04;21.42;;;9.07;;
20697;SDS011;10508;50.956;4.640;2023-04-28T02:09:30;18.00;;;8.77;;
20697;SDS011;10508;50.956;4.640;2023-04-28T02:11:56;22.23;;;9.88;;
20697;SDS011;10508;50.956;4.640;2023-04-28T02:14:24;23.42;;;10.27;;
20697;SDS011;10508;50.956;4.640;2023-04-28T02:16:50;18.75;;;9.35;;
20697;SDS011;10508;50.956;4.640;2023-04-28T02:19:16;23.48;;;10.32;;
20697;SDS011;10508;50.956;4.640;2023-04-28T02:21:42;20.77;;;9.93;;
20697;SDS011;10508;50.956;4.640;2023-04-28T02:24:08;19.10;;;10.02;;
20697;SDS011;10508;50.956;4.640;2023-04-28T02:26:34;22.35;;;10.10;;
20697;SDS011;10508;50.956;4.640;2023-04-28T02:29:00;19.98;;;10.30;;
20697;SDS011;10508;50.956;4.640;2023-04-28T02:31:28;27.08;;;10.75;;
20697;SDS011;10508;50.956;4.640;2023-04-28T02:33:54;24.63;;;10.98;;
20697;SDS011;10508;50.956;4.640;2023-04-28T02:36:20;29.05;;;11.85;;
20697;SDS011;10508;50.956;4.640;2023-04-28T02:38:46;26.95;;;12.15;;
20697;SDS011;10508;50.956;4.640;2023-04-28T02:41:12;25.80;;;11.50;;
20697;SDS011;10508;50.956;4.640;2023-04-28T02:43:39;20.77;;;11.02;;
20697;SDS011;10508;50.956;4.640;2023-04-28T02:46:06;23.27;;;11.38;;
20697;SDS011;10508;50.956;4.640;2023-04-28T02:48:32;26.02;;;12.57;;
20697;SDS011;10508;50.956;4.640;2023-04-28T02:51:00;28.52;;;11.55;;
20697;SDS011;10508;50.956;4.640;2023-04-28T02:53:26;25.85;;;11.43;;
20697;SDS011;10508;50.956;4.640;2023-04-28T02:55:52;25.52;;;11.82;;
20697;SDS011;10508;50.956;4.640;2023-04-28T02:58:18;23.90;;;11.93;;
20697;SDS011;10508;50.956;4.640;2023-04-28T03:00:45;26.63;;;11.65;;
20697;SDS011;10508;50.956;4.640;2023-04-28T03:03:11;27.45;;;12.25;;
20697;SDS011;10508;50.956;4.640;2023-04-28T03:05:37;27.85;;;11.88;;
20697;SDS011;10508;50.956;4.640;2023-04-28T03:08:03;24.05;;;11.88;;
20697;SDS011;10508;50.956;4.640;2023-04-28T03:10:29;33.50;;;12.50;;
20697;SDS011;10508;50.956;4.640;2023-04-28T03:12:55;23.45;;;12.07;;
20697;SDS011;10508;50.956;4.640;2023-04-28T03:15:21;27.95;;;12.77;;
20697;SDS011;10508;50.956;4.640;2023-04-28T03:17:47;25.13;;;12.38;;
20697;SDS011;10508;50.956;4.640;2023-04-28T03:20:13;25.92;;;12.48;;
20697;SDS011;10508;50.956;4.640;2023-04-28T03:22:39;28.70;;;11.88;;
20697;SDS011;10508;50.956;4.640;2023-04-28T03:25:25;28.70;;;12.55;;
20697;SDS011;10508;50.956;4.640;2023-04-28T03:27:51;25.33;;;11.48;;
20697;SDS011;10508;50.956;4.640;2023-04-28T03:30:17;26.35;;;12.68;;
20697;SDS011;10508;50.956;4.640;2023-04-28T03:32:43;35.70;;;13.07;;
20697;SDS011;10508;50.956;4.640;2023-04-28T03:35:09;25.90;;;11.25;;
20697;SDS011;10508;50.956;4.640;2023-04-28T03:37:35;31.08;;;12.82;;
20697;SDS011;10508;50.956;4.640;2023-04-28T03:40:01;31.35;;;12.90;;
20697;SDS011;10508;50.956;4.640;2023-04-28T03:42:27;23.75;;;11.02;;
20697;SDS011;10508;50.956;4.640;2023-04-28T03:44:53;23.50;;;12.18;;
20697;SDS011;10508;50.956;4.640;2023-04-28T03:47:19;26.73;;;12.73;;
20697;SDS011;10508;50.956;4.640;2023-04-28T03:49:45;26.60;;;12.27;;
20697;SDS011;10508;50.956;4.640;2023-04-28T03:52:11;33.85;;;14.05;;
20697;SDS011;10508;50.956;4.640;2023-04-28T03:54:37;31.67;;;14.15;;
20697;SDS011;10508;50.956;4.640;2023-04-28T03:57:03;27.48;;;13.10;;
20697;SDS011;10508;50.956;4.640;2023-04-28T03:59:29;25.60;;;12.90;;
20697;SDS011;10508;50.956;4.640;2023-04-28T04:01:55;27.52;;;12.60;;
20697;SDS011;10508;50.956;4.640;2023-04-28T04:04:21;27.80;;;13.20;;
20697;SDS011;10508;50.956;4.640;2023-04-28T04:06:47;32.85;;;14.05;;
20697;SDS011;10508;50.956;4.640;2023-04-28T04:09:13;26.75;;;12.70;;
20697;SDS011;10508;50.956;4.640;2023-04-28T04:11:39;28.95;;;13.30;;
20697;SDS011;10508;50.956;4.640;2023-04-28T04:14:05;28.58;;;13.75;;
20697;SDS011;10508;50.956;4.640;2023-04-28T04:16:31;31.42;;;13.80;;
20697;SDS011;10508;50.956;4.640;2023-04-28T04:18:58;30.15;;;13.82;;
20697;SDS011;10508;50.956;4.640;2023-04-28T04:21:24;29.25;;;13.25;;
20697;SDS011;10508;50.956;4.640;2023-04-28T04:24:09;35.58;;;14.55;;
20697;SDS011;10508;50.956;4.640;2023-04-28T04:26:35;29.02;;;14.25;;
20697;SDS011;10508;50.956;4.640;2023-04-28T04:29:01;30.42;;;14.15;;
20697;SDS011;10508;50.956;4.640;2023-04-28T04:31:27;31.17;;;14.85;;
20697;SDS011;10508;50.956;4.640;2023-04-28T04:33:53;30.15;;;14.48;;
20697;SDS011;10508;50.956;4.640;2023-04-28T04:36:19;27.95;;;14.13;;
20697;SDS011;10508;50.956;4.640;2023-04-28T04:38:45;30.40;;;14.50;;
20697;SDS011;10508;50.956;4.640;2023-04-28T04:41:11;31.83;;;15.05;;
20697;SDS011;10508;50.956;4.640;2023-04-28T04:43:37;29.20;;;14.68;;
20697;SDS011;10508;50.956;4.640;2023-04-28T04:46:03;32.50;;;15.35;;
20697;SDS011;10508;50.956;4.640;2023-04-28T04:48:29;35.58;;;15.50;;
20697;SDS011;10508;50.956;4.640;2023-04-28T04:50:55;33.30;;;15.75;;
20697;SDS011;10508;50.956;4.640;2023-04-28T04:53:21;35.85;;;15.57;;
20697;SDS011;10508;50.956;4.640;2023-04-28T04:55:47;29.95;;;15.07;;
20697;SDS011;10508;50.956;4.640;2023-04-28T04:58:14;34.83;;;15.35;;
20697;SDS011;10508;50.956;4.640;2023-04-28T05:00:40;30.92;;;14.57;;
20697;SDS011;10508;50.956;4.640;2023-04-28T05:03:06;32.88;;;16.48;;
20697;SDS011;10508;50.956;4.640;2023-04-28T05:05:33;30.65;;;14.88;;
20697;SDS011;10508;50.956;4.640;2023-04-28T05:07:59;33.67;;;15.10;;
20697;SDS011;10508;50.956;4.640;2023-04-28T05:10:26;29.33;;;14.10;;
20697;SDS011;10508;50.956;4.640;2023-04-28T05:12:52;35.00;;;15.32;;
20697;SDS011;10508;50.956;4.640;2023-04-28T05:15:18;33.90;;;16.73;;
20697;SDS011;10508;50.956;4.640;2023-04-28T05:17:44;36.25;;;15.20;;
20697;SDS011;10508;50.956;4.640;2023-04-28T05:20:10;26.80;;;14.77;;
20697;SDS011;10508;50.956;4.640;2023-04-28T05:22:36;33.28;;;16.05;;
20697;SDS011;10508;50.956;4.640;2023-04-28T05:25:02;30.15;;;15.38;;
20697;SDS011;10508;50.956;4.640;2023-04-28T05:27:28;33.40;;;15.77;;
20697;SDS011;10508;50.956;4.640;2023-04-28T05:29:54;32.92;;;15.60;;
20697;SDS011;10508;50.956;4.640;2023-04-28T05:32:20;32.63;;;14.95;;
20697;SDS011;10508;50.956;4.640;2023-04-28T05:34:46;32.47;;;16.17;;
20697;SDS011;10508;50.956;4.640;2023-04-28T05:37:12;30.13;;;15.07;;
20697;SDS011;10508;50.956;4.640;2023-04-28T05:39:38;33.15;;;15.25;;
20697;SDS011;10508;50.956;4.640;2023-04-28T05:42:04;37.42;;;16.15;;
20697;SDS011;10508;50.956;4.640;2023-04-28T05:44:31;34.08;;;16.52;;
20697;SDS011;10508;50.956;4.640;2023-04-28T05:46:57;32.38;;;16.33;;
20697;SDS011;10508;50.956;4.640;2023-04-28T05:49:23;34.85;;;16.40;;
20697;SDS011;10508;50.956;4.640;2023-04-28T05:51:49;30.90;;;15.07;;
20697;SDS011;10508;50.956;4.640;2023-04-28T05:54:15;36.92;;;15.93;;
20697;SDS011;10508;50.956;4.640;2023-04-28T05:56:41;35.67;;;17.15;;
20697;SDS011;10508;50.956;4.640;2023-04-28T05:59:07;30.98;;;15.90;;
20697;SDS011;10508;50.956;4.640;2023-04-28T06:01:34;32.30;;;16.80;;
20697;SDS011;10508;50.956;4.640;2023-04-28T06:04:00;33.72;;;15.57;;
20697;SDS011;10508;50.956;4.640;2023-04-28T06:06:26;31.10;;;15.63;;
20697;SDS011;10508;50.956;4.640;2023-04-28T06:08:52;35.80;;;16.40;;
20697;SDS011;10508;50.956;4.640;2023-04-28T06:11:18;36.50;;;16.20;;
20697;SDS011;10508;50.956;4.640;2023-04-28T06:13:46;38.28;;;16.55;;
20697;SDS011;10508;50.956;4.640;2023-04-28T06:16:13;34.17;;;15.57;;
20697;SDS011;10508;50.956;4.640;2023-04-28T06:18:39;34.28;;;15.77;;
20697;SDS011;10508;50.956;4.640;2023-04-28T06:21:05;32.60;;;16.42;;
20697;SDS011;10508;50.956;4.640;2023-04-28T06:23:31;36.92;;;16.85;;
20697;SDS011;10508;50.956;4.640;2023-04-28T06:25:57;39.25;;;17.40;;
20697;SDS011;10508;50.956;4.640;2023-04-28T06:28:23;36.97;;;16.30;;
20697;SDS011;10508;50.956;4.640;2023-04-28T06:30:49;39.08;;;17.38;;
20697;SDS011;10508;50.956;4.640;2023-04-28T06:33:15;34.90;;;17.05;;
20697;SDS011;10508;50.956;4.640;2023-04-28T06:35:41;36.92;;;17.92;;
20697;SDS011;10508;50.956;4.640;2023-04-28T06:38:07;37.97;;;16.52;;
20697;SDS011;10508;50.956;4.640;2023-04-28T06:40:33;35.30;;;17.20;;
20697;SDS011;10508;50.956;4.640;2023-04-28T06:43:00;38.10;;;17.80;;
20697;SDS011;10508;50.956;4.640;2023-04-28T06:45:26;37.83;;;17.83;;
20697;SDS011;10508;50.956;4.640;2023-04-28T06:47:52;39.13;;;16.88;;
20697;SDS011;10508;50.956;4.640;2023-04-28T06:50:22;31.95;;;17.00;;
20697;SDS011;10508;50.956;4.640;2023-04-28T06:52:48;38.47;;;18.25;;
20697;SDS011;10508;50.956;4.640;2023-04-28T06:55:14;34.53;;;16.10;;
20697;SDS011;10508;50.956;4.640;2023-04-28T06:57:41;34.92;;;17.48;;
20697;SDS011;10508;50.956;4.640;2023-04-28T07:00:08;37.75;;;16.80;;
20697;SDS011;10508;50.956;4.640;2023-04-28T07:02:34;33.88;;;17.23;;
20697;SDS011;10508;50.956;4.640;2023-04-28T07:05:01;35.53;;;16.65;;
20697;SDS011;10508;50.956;4.640;2023-04-28T07:07:27;33.17;;;16.08;;
20697;SDS011;10508;50.956;4.640;2023-04-28T07:09:54;34.40;;;16.58;;
20697;SDS011;10508;50.956;4.640;2023-04-28T07:12:20;30.95;;;15.43;;
20697;SDS011;10508;50.956;4.640;2023-04-28T07:14:46;29.35;;;15.13;;
20697;SDS011;10508;50.956;4.640;2023-04-28T07:17:13;29.05;;;14.75;;
20697;SDS011;10508;50.956;4.640;2023-04-28T07:19:39;31.00;;;14.82;;
20697;SDS011;10508;50.956;4.640;2023-04-28T07:22:05;28.85;;;14.93;;
20697;SDS011;10508;50.956;4.640;2023-04-28T07:24:31;30.20;;;14.48;;
20697;SDS011;10508;50.956;4.640;2023-04-28T07:26:57;19.75;;;11.48;;
20697;SDS011;10508;50.956;4.640;2023-04-28T07:29:23;22.60;;;10.43;;
20697;SDS011;10508;50.956;4.640;2023-04-28T07:31:52;22.55;;;11.38;;
20697;SDS011;10508;50.956;4.640;2023-04-28T07:34:18;18.50;;;9.35;;
20697;SDS011;10508;50.956;4.640;2023-04-28T07:36:44;19.02;;;8.55;;
20697;SDS011;10508;50.956;4.640;2023-04-28T07:39:11;11.55;;;6.65;;
20697;SDS011;10508;50.956;4.640;2023-04-28T07:41:37;9.52;;;6.38;;
20697;SDS011;10508;50.956;4.640;2023-04-28T07:44:04;8.38;;;5.18;;
20697;SDS011;10508;50.956;4.640;2023-04-28T07:46:32;7.43;;;4.90;;
20697;SDS011;10508;50.956;4.640;2023-04-28T07:48:58;4.93;;;3.47;;
20697;SDS011;10508;50.956;4.640;2023-04-28T07:51:24;4.53;;;3.20;;
20697;SDS011;10508;50.956;4.640;2023-04-28T07:53:50;5.40;;;3.35;;
20697;SDS011;10508;50.956;4.640;2023-04-28T07:56:16;7.28;;;3.53;;
20697;SDS011;10508;50.956;4.640;2023-04-28T07:58:43;4.53;;;2.72;;
20697;SDS011;10508;50.956;4.640;2023-04-28T08:01:09;4.45;;;2.85;;
20697;SDS011;10508;50.956;4.640;2023-04-28T08:03:36;4.75;;;2.75;;
20697;SDS011;10508;50.956;4.640;2023-04-28T08:06:02;7.18;;;2.42;;
20697;SDS011;10508;50.956;4.640;2023-04-28T08:08:28;3.72;;;2.22;;
20697;SDS011;10508;50.956;4.640;2023-04-28T08:10:54;3.45;;;2.63;;
20697;SDS011;10508;50.956;4.640;2023-04-28T08:13:21;3.28;;;2.30;;
20697;SDS011;10508;50.956;4.640;2023-04-28T08:15:48;2.40;;;1.90;;
20697;SDS011;10508;50.956;4.640;2023-04-28T08:18:14;2.58;;;1.90;;
20697;SDS011;10508;50.956;4.640;2023-04-28T08:20:40;2.50;;;1.67;;
20697;SDS011;10508;50.956;4.640;2023-04-28T08:23:07;2.58;;;1.48;;
20697;SDS011;10508;50.956;4.640;2023-04-28T08:25:34;3.15;;;1.48;;
20697;SDS011;10508;50.956;4.640;2023-04-28T08:28:00;1.88;;;1.58;;
20697;SDS011;10508;50.956;4.640;2023-04-28T08:30:27;5.03;;;1.58;;
20697;SDS011;10508;50.956;4.640;2023-04-28T08:32:54;1.88;;;1.35;;
20697;SDS011;10508;50.956;4.640;2023-04-28T08:35:20;2.58;;;1.75;;
20697;SDS011;10508;50.956;4.640;2023-04-28T08:37:46;2.60;;;1.30;;
20697;SDS011;10508;50.956;4.640;2023-04-28T08:40:13;1.67;;;1.33;;
20697;SDS011;10508;50.956;4.640;2023-04-28T08:42:39;5.32;;;1.85;;
20697;SDS011;10508;50.956;4.640;2023-04-28T08:45:06;2.28;;;1.35;;
20697;SDS011;10508;50.956;4.640;2023-04-28T08:47:33;2.17;;;1.30;;
20697;SDS011;10508;50.956;4.640;2023-04-28T08:50:03;1.65;;;1.48;;
20697;SDS011;10508;50.956;4.640;2023-04-28T08:52:30;4.40;;;1.67;;
20697;SDS011;10508;50.956;4.640;2023-04-28T08:54:59;1.98;;;1.30;;
20697;SDS011;10508;50.956;4.640;2023-04-28T08:57:27;1.60;;;0.95;;
20697;SDS011;10508;50.956;4.640;2023-04-28T08:59:55;1.85;;;0.98;;
20697;SDS011;10508;50.956;4.640;2023-04-28T09:02:21;1.90;;;1.10;;
20697;SDS011;10508;50.956;4.640;2023-04-28T09:04:47;2.08;;;1.08;;
20697;SDS011;10508;50.956;4.640;2023-04-28T09:07:13;1.02;;;0.90;;
20697;SDS011;10508;50.956;4.640;2023-04-28T09:09:39;5.72;;;1.20;;
20697;SDS011;10508;50.956;4.640;2023-04-28T09:12:05;2.63;;;0.90;;
20697;SDS011;10508;50.956;4.640;2023-04-28T09:14:32;7.07;;;1.60;;
20697;SDS011;10508;50.956;4.640;2023-04-28T09:16:59;15.95;;;2.47;;
20697;SDS011;10508;50.956;4.640;2023-04-28T09:19:34;5.03;;;1.27;;
20697;SDS011;10508;50.956;4.640;2023-04-28T09:22:01;11.23;;;1.08;;
20697;SDS011;10508;50.956;4.640;2023-04-28T09:24:31;3.80;;;1.00;;
20697;SDS011;10508;50.956;4.640;2023-04-28T09:26:57;1.27;;;0.82;;
20697;SDS011;10508;50.956;4.640;2023-04-28T09:29:24;1.13;;;0.50;;
20697;SDS011;10508;50.956;4.640;2023-04-28T09:31:50;9.07;;;1.40;;
20697;SDS011;10508;50.956;4.640;2023-04-28T09:34:17;4.55;;;0.70;;
20697;SDS011;10508;50.956;4.640;2023-04-28T09:36:43;3.25;;;1.17;;
20697;SDS011;10508;50.956;4.640;2023-04-28T09:39:09;1.30;;;0.70;;
20697;SDS011;10508;50.956;4.640;2023-04-28T09:44:08;2.17;;;0.77;;
20697;SDS011;10508;50.956;4.640;2023-04-28T09:46:34;7.63;;;1.20;;
20697;SDS011;10508;50.956;4.640;2023-04-28T09:49:00;10.73;;;1.52;;
20697;SDS011;10508;50.956;4.640;2023-04-28T09:51:27;3.50;;;0.98;;
20697;SDS011;10508;50.956;4.640;2023-04-28T09:53:54;2.15;;;0.47;;
20697;SDS011;10508;50.956;4.640;2023-04-28T09:56:22;1.65;;;0.60;;
20697;SDS011;10508;50.956;4.640;2023-04-28T09:58:49;0.75;;;0.40;;
20697;SDS011;10508;50.956;4.640;2023-04-28T10:01:16;0.93;;;0.43;;
20697;SDS011;10508;50.956;4.640;2023-04-28T10:03:43;10.60;;;0.82;;
20697;SDS011;10508;50.956;4.640;2023-04-28T10:06:09;1.45;;;0.60;;
20697;SDS011;10508;50.956;4.640;2023-04-28T10:08:35;5.72;;;1.17;;
20697;SDS011;10508;50.956;4.640;2023-04-28T10:11:01;7.25;;;1.38;;
20697;SDS011;10508;50.956;4.640;2023-04-28T10:13:27;4.30;;;0.77;;
20697;SDS011;10508;50.956;4.640;2023-04-28T10:15:54;0.52;;;0.40;;
20697;SDS011;10508;50.956;4.640;2023-04-28T10:18:22;1.25;;;0.77;;
20697;SDS011;10508;50.956;4.640;2023-04-28T10:20:51;6.05;;;1.17;;
20697;SDS011;10508;50.956;4.640;2023-04-28T10:25:44;15.27;;;3.03;;
20697;SDS011;10508;50.956;4.640;2023-04-28T10:28:13;6.47;;;1.98;;
20697;SDS011;10508;50.956;4.640;2023-04-28T10:30:39;3.65;;;1.67;;
20697;SDS011;10508;50.956;4.640;2023-04-28T10:38:15;5.47;;;2.42;;
20697;SDS011;10508;50.956;4.640;2023-04-28T10:40:59;3.15;;;2.20;;
20697;SDS011;10508;50.956;4.640;2023-04-28T10:56:13;1.23;;;1.10;;
20697;SDS011;10508;50.956;4.640;2023-04-28T10:58:40;0.30;;;0.30;;
20697;SDS011;10508;50.956;4.640;2023-04-28T11:08:47;2.40;;;0.85;;
20697;SDS011;10508;50.956;4.640;2023-04-28T11:11:16;0.90;;;0.50;;
20697;SDS011;10508;50.956;4.640;2023-04-28T11:13:42;2.95;;;0.38;;
20697;SDS011;10508;50.956;4.640;2023-04-28T11:16:11;1.27;;;0.50;;
20697;SDS011;10508;50.956;4.640;2023-04-28T11:18:58;1.67;;;0.60;;
20697;SDS011;10508;50.956;4.640;2023-04-28T11:21:24;0.88;;;0.43;;
20697;SDS011;10508;50.956;4.640;2023-04-28T11:23:52;0.60;;;0.40;;
20697;SDS011;10508;50.956;4.640;2023-04-28T11:26:18;6.43;;;0.88;;
20697;SDS011;10508;50.956;4.640;2023-04-28T11:31:14;1.55;;;0.60;;
20697;SDS011;10508;50.956;4.640;2023-04-28T11:33:48;1.13;;;0.52;;
20697;SDS011;10508;50.956;4.640;2023-04-28T11:36:22;1.52;;;0.57;;
20697;SDS011;10508;50.956;4.640;2023-04-28T11:38:48;0.57;;;0.50;;
20697;SDS011;10508;50.956;4.640;2023-04-28T11:41:14;3.15;;;1.25;;
20697;SDS011;10508;50.956;4.640;2023-04-28T11:43:40;0.90;;;0.63;;
20697;SDS011;10508;50.956;4.640;2023-04-28T11:46:06;1.55;;;0.80;;
20697;SDS011;10508;50.956;4.640;2023-04-28T11:48:32;2.83;;;0.65;;
20697;SDS011;10508;50.956;4.640;2023-04-28T11:50:58;1.52;;;0.90;;
20697;SDS011;10508;50.956;4.640;2023-04-28T11:53:41;2.97;;;0.70;;
20697;SDS011;10508;50.956;4.640;2023-04-28T11:56:07;3.53;;;0.65;;
20697;SDS011;10508;50.956;4.640;2023-04-28T11:58:33;1.05;;;0.73;;
20697;SDS011;10508;50.956;4.640;2023-04-28T12:01:09;11.25;;;1.52;;
20697;SDS011;10508;50.956;4.640;2023-04-28T12:03:42;10.77;;;1.55;;
20697;SDS011;10508;50.956;4.640;2023-04-28T12:06:08;1.23;;;0.80;;
20697;SDS011;10508;50.956;4.640;2023-04-28T12:08:34;4.78;;;1.13;;
20697;SDS011;10508;50.956;4.640;2023-04-28T12:11:07;2.17;;;0.98;;
20697;SDS011;10508;50.956;4.640;2023-04-28T12:13:37;0.90;;;0.90;;
20697;SDS011;10508;50.956;4.640;2023-04-28T12:16:04;1.67;;;0.80;;
20697;SDS011;10508;50.956;4.640;2023-04-28T12:18:33;1.65;;;0.60;;
20697;SDS011;10508;50.956;4.640;2023-04-28T12:21:03;2.30;;;1.05;;
20697;SDS011;10508;50.956;4.640;2023-04-28T12:26:01;1.05;;;0.68;;
20697;SDS011;10508;50.956;4.640;2023-04-28T12:31:04;21.88;;;1.77;;
20697;SDS011;10508;50.956;4.640;2023-04-28T12:33:30;1.27;;;0.70;;
20697;SDS011;10508;50.956;4.640;2023-04-28T12:36:01;2.30;;;1.60;;
20697;SDS011;10508;50.956;4.640;2023-04-28T12:38:28;2.78;;;1.00;;
20697;SDS011;10508;50.956;4.640;2023-04-28T12:40:54;2.35;;;0.90;;
20697;SDS011;10508;50.956;4.640;2023-04-28T12:43:20;1.17;;;1.08;;
20697;SDS011;10508;50.956;4.640;2023-04-28T12:45:50;1.35;;;0.88;;
20697;SDS011;10508;50.956;4.640;2023-04-28T12:48:17;4.13;;;1.00;;
20697;SDS011;10508;50.956;4.640;2023-04-28T12:50:43;0.77;;;0.60;;
20697;SDS011;10508;50.956;4.640;2023-04-28T12:53:10;1.08;;;0.80;;
20697;SDS011;10508;50.956;4.640;2023-04-28T12:55:36;1.73;;;0.95;;
20697;SDS011;10508;50.956;4.640;2023-04-28T12:58:05;1.60;;;0.80;;
20697;SDS011;10508;50.956;4.640;2023-04-28T13:00:31;1.83;;;1.25;;
20697;SDS011;10508;50.956;4.640;2023-04-28T13:02:57;1.65;;;1.00;;
20697;SDS011;10508;50.956;4.640;2023-04-28T13:05:23;1.58;;;0.75;;
20697;SDS011;10508;50.956;4.640;2023-04-28T13:07:49;4.93;;;1.30;;
20697;SDS011;10508;50.956;4.640;2023-04-28T13:10:16;1.63;;;0.80;;
20697;SDS011;10508;50.956;4.640;2023-04-28T13:12:43;1.58;;;1.20;;
20697;SDS011;10508;50.956;4.640;2023-04-28T13:15:09;2.55;;;1.00;;
20697;SDS011;10508;50.956;4.640;2023-04-28T13:17:35;3.63;;;1.02;;
20697;SDS011;10508;50.956;4.640;2023-04-28T13:20:01;9.02;;;1.63;;
20697;SDS011;10508;50.956;4.640;2023-04-28T13:22:29;1.42;;;0.90;;
20697;SDS011;10508;50.956;4.640;2023-04-28T13:24:55;2.90;;;1.05;;
20697;SDS011;10508;50.956;4.640;2023-04-28T13:27:21;2.50;;;0.98;;
20697;SDS011;10508;50.956;4.640;2023-04-28T13:29:48;1.67;;;0.90;;
20697;SDS011;10508;50.956;4.640;2023-04-28T13:32:14;1.27;;;1.08;;
20697;SDS011;10508;50.956;4.640;2023-04-28T13:34:40;2.58;;;0.85;;
20697;SDS011;10508;50.956;4.640;2023-04-28T13:37:07;1.15;;;0.75;;
20697;SDS011;10508;50.956;4.640;2023-04-28T13:39:33;0.80;;;0.80;;
20697;SDS011;10508;50.956;4.640;2023-04-28T13:41:59;2.30;;;0.93;;
20697;SDS011;10508;50.956;4.640;2023-04-28T13:44:25;1.38;;;1.00;;
20697;SDS011;10508;50.956;4.640;2023-04-28T13:46:51;7.80;;;1.02;;
20697;SDS011;10508;50.956;4.640;2023-04-28T13:49:17;1.27;;;1.10;;
20697;SDS011;10508;50.956;4.640;2023-04-28T13:51:44;2.13;;;1.33;;
20697;SDS011;10508;50.956;4.640;2023-04-28T13:54:10;2.13;;;1.20;;
20697;SDS011;10508;50.956;4.640;2023-04-28T13:56:36;1.88;;;1.33;;
20697;SDS011;10508;50.956;4.640;2023-04-28T13:59:02;1.80;;;1.23;;
20697;SDS011;10508;50.956;4.640;2023-04-28T14:01:28;6.47;;;1.55;;
20697;SDS011;10508;50.956;4.640;2023-04-28T14:03:54;4.43;;;1.38;;
20697;SDS011;10508;50.956;4.640;2023-04-28T14:06:20;6.65;;;1.58;;
20697;SDS011;10508;50.956;4.640;2023-04-28T14:08:47;1.90;;;1.50;;
20697;SDS011;10508;50.956;4.640;2023-04-28T14:11:13;1.55;;;1.23;;
20697;SDS011;10508;50.956;4.640;2023-04-28T14:13:39;2.25;;;1.17;;
20697;SDS011;10508;50.956;4.640;2023-04-28T14:16:05;1.27;;;1.10;;
20697;SDS011;10508;50.956;4.640;2023-04-28T14:18:32;1.95;;;1.20;;
20697;SDS011;10508;50.956;4.640;2023-04-28T14:20:58;2.58;;;1.02;;
20697;SDS011;10508;50.956;4.640;2023-04-28T14:23:26;0.90;;;0.80;;
20697;SDS011;10508;50.956;4.640;2023-04-28T14:25:52;4.15;;;1.30;;
20697;SDS011;10508;50.956;4.640;2023-04-28T14:28:20;2.75;;;1.20;;
20697;SDS011;10508;50.956;4.640;2023-04-28T14:30:46;1.88;;;1.30;;
20697;SDS011;10508;50.956;4.640;2023-04-28T14:33:13;3.08;;;1.60;;
20697;SDS011;10508;50.956;4.640;2023-04-28T14:35:39;1.63;;;1.25;;
20697;SDS011;10508;50.956;4.640;2023-04-28T14:38:06;2.25;;;1.25;;
20697;SDS011;10508;50.956;4.640;2023-04-28T14:40:32;2.17;;;1.30;;
20697;SDS011;10508;50.956;4.640;2023-04-28T14:42:58;6.20;;;1.42;;
20697;SDS011;10508;50.956;4.640;2023-04-28T14:45:24;2.10;;;1.25;;
20697;SDS011;10508;50.956;4.640;2023-04-28T14:47:51;1.40;;;0.93;;
20697;SDS011;10508;50.956;4.640;2023-04-28T14:50:17;3.95;;;1.20;;
20697;SDS011;10508;50.956;4.640;2023-04-28T14:52:43;1.45;;;1.08;;
20697;SDS011;10508;50.956;4.640;2023-04-28T14:55:10;4.40;;;1.73;;
20697;SDS011;10508;50.956;4.640;2023-04-28T14:57:36;2.83;;;1.85;;
20697;SDS011;10508;50.956;4.640;2023-04-28T15:00:02;7.00;;;1.60;;
20697;SDS011;10508;50.956;4.640;2023-04-28T15:02:28;2.38;;;1.33;;
20697;SDS011;10508;50.956;4.640;2023-04-28T15:04:55;1.75;;;1.17;;
20697;SDS011;10508;50.956;4.640;2023-04-28T15:07:21;2.17;;;1.20;;
20697;SDS011;10508;50.956;4.640;2023-04-28T15:09:47;2.65;;;1.38;;
20697;SDS011;10508;50.956;4.640;2023-04-28T15:12:13;4.60;;;1.40;;